Time;durP1;ratioP1;P1;durP2;ratioP2;P2;SDS_P1;SDS_P2;PMS_P1;PMS_P2;Temp;Humidity;BMP_temperature;BMP_pressure;BME280_temperature;BME280_humidity;BME280_pressure;Samples;Min_cycle;Max_cycle;Signal;HPM_P1;HPM_P2
2022/08/19 00:02:46;;;;;;;10.63;5.13;;;;;;;19.14;88.90;100592.28;6040791;28;20025;-63
2022/08/19 00:05:41;;;;;;;12.68;6.10;;;;;;;19.06;89.65;100578.19;6044568;28;20711;-64
2022/08/19 00:08:36;;;;;;;12.23;5.80;;;;;;;18.98;90.17;100584.59;6036171;28;20046;-63
2022/08/19 00:11:32;;;;;;;10.43;5.77;;;;;;;18.97;90.22;100583.78;6039000;28;20109;-64
2022/08/19 00:14:31;;;;;;;9.55;5.97;;;;;;;18.95;90.22;100585.84;6045925;28;20087;-63
2022/08/19 00:17:26;;;;;;;9.55;5.38;;;;;;;18.88;90.41;100585.00;6041065;28;20033;-63
2022/08/19 00:20:22;;;;;;;9.57;5.17;;;;;;;18.86;90.48;100581.69;6046209;28;20489;-63
2022/08/19 00:23:17;;;;;;;10.23;5.97;;;;;;;18.89;90.35;100586.66;6034148;28;20022;-64
2022/08/19 00:26:13;;;;;;;12.07;5.77;;;;;;;18.82;90.18;100571.53;6039091;28;20056;-63
2022/08/19 00:29:11;;;;;;;8.18;5.63;;;;;;;18.77;90.51;100564.09;6041880;28;20052;-63
2022/08/19 00:32:06;;;;;;;10.25;5.75;;;;;;;18.77;90.69;100564.09;6047801;28;20034;-64
2022/08/19 00:35:02;;;;;;;11.45;6.35;;;;;;;18.80;90.46;100570.94;6038366;28;20030;-63
2022/08/19 00:37:58;;;;;;;8.93;5.43;;;;;;;18.88;90.38;100581.50;6030621;28;20694;-63
2022/08/19 00:40:54;;;;;;;12.13;5.40;;;;;;;18.91;90.20;100581.91;6049174;28;20034;-64
2022/08/19 00:44:10;;;;;;;11.82;5.80;;;;;;;18.87;90.09;100572.59;6047537;28;20088;-64
2022/08/19 00:47:06;;;;;;;7.60;5.03;;;;;;;18.97;89.53;100570.34;6049728;28;20030;-64
2022/08/19 00:50:02;;;;;;;8.02;5.28;;;;;;;18.98;89.61;100579.22;6040703;28;20058;-63
2022/08/19 00:52:57;;;;;;;9.38;5.05;;;;;;;18.86;89.68;100570.13;6051284;28;20060;-64
2022/08/19 00:55:55;;;;;;;13.75;5.43;;;;;;;18.80;89.87;100571.75;6048885;28;20036;-64
2022/08/19 00:58:50;;;;;;;9.43;4.93;;;;;;;18.75;89.88;100571.50;6044905;28;20061;-64
2022/08/19 01:01:46;;;;;;;13.38;5.80;;;;;;;18.75;90.38;100579.56;6046220;28;20034;-63
2022/08/19 01:04:42;;;;;;;9.48;5.22;;;;;;;18.76;90.48;100575.88;6045224;28;20038;-63
2022/08/19 01:07:38;;;;;;;9.32;4.75;;;;;;;18.70;90.59;100571.28;6046569;28;20507;-64
2022/08/19 01:10:37;;;;;;;11.52;5.13;;;;;;;18.64;90.90;100571.28;6033926;28;20029;-63
2022/08/19 01:13:33;;;;;;;10.73;5.18;;;;;;;18.57;91.51;100568.56;6043644;28;20065;-64
2022/08/19 01:16:29;;;;;;;12.13;6.13;;;;;;;18.56;91.50;100575.00;6059273;28;20115;-63
2022/08/19 01:19:37;;;;;;;11.77;6.07;;;;;;;18.50;91.27;100575.78;6046428;28;20038;-64
2022/08/19 01:22:42;;;;;;;13.90;6.13;;;;;;;18.53;91.97;100569.19;6041686;28;20116;-63
2022/08/19 01:25:49;;;;;;;11.82;5.85;;;;;;;18.47;91.99;100559.22;6048687;28;20099;-63
2022/08/19 01:28:49;;;;;;;10.25;5.60;;;;;;;18.48;92.38;100556.34;6042746;28;20141;-63
2022/08/19 01:31:44;;;;;;;11.30;5.90;;;;;;;18.49;92.47;100558.00;6037112;28;20034;-64
2022/08/19 01:34:40;;;;;;;12.93;5.33;;;;;;;18.57;92.53;100565.06;6043615;28;20035;-63
2022/08/19 01:37:43;;;;;;;10.82;5.35;;;;;;;18.46;92.75;100555.69;6036271;28;20886;-64
2022/08/19 01:40:39;;;;;;;10.10;5.43;;;;;;;18.41;93.38;100561.66;6043589;28;20088;-64
2022/08/19 01:43:35;;;;;;;12.30;6.18;;;;;;;18.48;93.24;100568.97;6035097;28;20125;-64
2022/08/19 01:46:31;;;;;;;13.82;5.63;;;;;;;18.52;93.11;100557.59;6045321;28;20068;-64
2022/08/19 01:49:27;;;;;;;10.50;5.18;;;;;;;18.48;92.97;100571.66;6041121;28;20038;-63
2022/08/19 01:52:22;;;;;;;11.03;5.50;;;;;;;18.47;92.99;100559.22;6045840;28;20037;-63
2022/08/19 01:55:20;;;;;;;9.40;6.43;;;;;;;18.39;92.89;100565.59;6046511;28;20088;-64
2022/08/19 01:58:20;;;;;;;11.80;5.88;;;;;;;18.31;93.26;100553.16;6042523;28;20045;-63
2022/08/19 02:01:16;;;;;;;10.20;5.43;;;;;;;18.23;93.43;100547.13;6041418;28;20034;-63
2022/08/19 02:04:11;;;;;;;13.02;5.88;;;;;;;18.23;93.41;100553.34;6041074;28;20080;-64
2022/08/19 02:07:07;;;;;;;11.07;5.97;;;;;;;18.12;93.29;100545.00;6047468;28;20745;-64
2022/08/19 02:10:05;;;;;;;11.27;5.63;;;;;;;18.19;93.24;100551.22;6037999;28;20033;-63
2022/08/19 02:13:01;;;;;;;13.93;5.57;;;;;;;18.11;93.54;100548.72;6038659;28;20548;-64
2022/08/19 02:15:56;;;;;;;11.80;5.80;;;;;;;18.16;93.55;100554.31;6043395;28;20049;-63
2022/08/19 02:18:51;;;;;;;9.77;5.33;;;;;;;18.08;93.39;100554.47;6044082;28;20054;-64
2022/08/19 02:21:47;;;;;;;11.17;5.40;;;;;;;18.00;94.00;100546.59;6040138;28;20042;-63
2022/08/19 02:24:42;;;;;;;11.23;5.70;;;;;;;18.03;93.84;100540.84;6035138;28;20031;-64
2022/08/19 02:27:38;;;;;;;11.10;5.20;;;;;;;17.98;93.97;100540.59;6035282;28;20466;-63
2022/08/19 02:30:33;;;;;;;12.30;5.25;;;;;;;17.95;93.82;100533.78;6026895;28;20042;-63
2022/08/19 02:33:28;;;;;;;11.20;5.60;;;;;;;18.08;93.74;100557.16;6036520;28;20117;-63
2022/08/19 02:36:25;;;;;;;10.15;5.20;;;;;;;18.01;93.66;100559.81;6046782;28;20030;-64
2022/08/19 02:39:20;;;;;;;9.40;5.63;;;;;;;17.93;93.82;100553.78;6049980;28;20617;-64
2022/08/19 02:42:15;;;;;;;10.13;5.57;;;;;;;17.94;94.01;100563.50;6036570;28;20037;-64
2022/08/19 02:45:13;;;;;;;10.73;5.43;;;;;;;17.89;94.29;100560.56;6041553;28;20034;-63
2022/08/19 02:48:09;;;;;;;12.88;5.95;;;;;;;17.87;94.11;100546.53;6030687;28;20030;-64
2022/08/19 02:51:05;;;;;;;8.80;5.37;;;;;;;17.81;94.04;100543.59;6043321;28;20685;-63
2022/08/19 02:54:00;;;;;;;12.52;6.43;;;;;;;17.90;94.09;100557.69;6044504;28;20022;-63
2022/08/19 02:56:56;;;;;;;13.55;5.97;;;;;;;17.84;93.97;100574.56;6044571;28;20088;-63
2022/08/19 02:59:52;;;;;;;11.00;5.63;;;;;;;17.80;94.18;100558.03;6040808;28;20033;-64
2022/08/19 03:02:48;;;;;;;14.05;6.00;;;;;;;17.73;94.36;100562.53;6045144;28;20101;-63
2022/08/19 03:05:43;;;;;;;11.90;6.28;;;;;;;17.70;94.67;100559.41;6039520;28;20499;-64
2022/08/19 03:08:41;;;;;;;11.77;5.97;;;;;;;17.77;94.71;100558.41;6040481;28;20034;-64
2022/08/19 03:11:37;;;;;;;14.27;5.80;;;;;;;17.66;94.84;100555.47;6045694;28;20091;-63
2022/08/19 03:14:33;;;;;;;12.07;6.43;;;;;;;17.60;95.30;100557.09;6043665;28;20029;-63
2022/08/19 03:17:29;;;;;;;13.18;6.78;;;;;;;17.54;95.71;100563.22;6045708;28;20156;-63
2022/08/19 03:20:25;;;;;;;12.40;6.07;;;;;;;17.64;95.61;100570.91;6032134;28;20030;-63
2022/08/19 03:23:21;;;;;;;10.20;6.10;;;;;;;17.55;95.46;100564.88;6042972;28;20029;-63
2022/08/19 03:26:16;;;;;;;10.80;6.35;;;;;;;17.58;95.86;100569.84;6031398;28;20030;-63
2022/08/19 03:29:12;;;;;;;11.77;5.88;;;;;;;17.48;95.56;100558.59;6038640;28;20064;-64
2022/08/19 03:32:07;;;;;;;13.75;5.95;;;;;;;17.44;95.85;100546.63;6036357;28;20394;-63
2022/08/19 03:35:03;;;;;;;11.40;6.23;;;;;;;17.46;96.06;100546.41;6041221;28;20065;-63
2022/08/19 03:37:59;;;;;;;10.60;6.65;;;;;;;17.52;95.98;100565.25;6041513;28;20100;-63
2022/08/19 03:40:54;;;;;;;11.50;6.32;;;;;;;17.46;95.96;100555.28;6038887;28;20034;-64
2022/08/19 03:43:50;;;;;;;12.95;6.28;;;;;;;17.54;95.68;100570.44;6037905;28;20026;-64
2022/08/19 03:46:47;;;;;;;12.32;6.50;;;;;;;17.45;95.94;100568.91;6046148;28;20062;-63
2022/08/19 03:49:43;;;;;;;13.50;5.82;;;;;;;17.35;96.14;100554.97;6034127;28;20481;-63
2022/08/19 03:52:39;;;;;;;11.90;5.55;;;;;;;17.45;96.32;100566.22;6037196;28;20172;-63
2022/08/19 03:55:40;;;;;;;11.82;5.78;;;;;;;17.39;95.83;100569.66;6039848;28;20064;-64
2022/08/19 03:58:37;;;;;;;10.88;5.65;;;;;;;17.41;95.73;100573.81;6035523;28;20053;-64
2022/08/19 04:01:32;;;;;;;13.05;4.60;;;;;;;17.31;95.80;100567.13;6043541;28;20388;-63
2022/08/19 04:04:29;;;;;;;10.27;6.13;;;;;;;17.23;95.60;100576.09;6032333;28;20038;-63
2022/08/19 04:07:24;;;;;;;10.65;5.30;;;;;;;17.15;96.23;100563.69;6044906;28;20114;-63
2022/08/19 04:10:20;;;;;;;18.90;6.33;;;;;;;17.10;96.85;100570.63;6030444;28;20038;-63
2022/08/19 04:13:17;;;;;;;12.67;5.70;;;;;;;17.12;96.85;100579.31;6037137;28;20029;-63
2022/08/19 04:16:12;;;;;;;9.40;5.85;;;;;;;17.08;97.21;100583.41;6041357;28;20381;-64
2022/08/19 04:19:08;;;;;;;12.25;6.60;;;;;;;17.04;96.98;100587.50;6037062;28;20134;-63
2022/08/19 04:22:04;;;;;;;10.37;5.67;;;;;;;17.02;97.48;100600.22;6040672;28;20064;-63
2022/08/19 04:24:59;;;;;;;13.70;5.85;;;;;;;16.96;97.21;100585.75;6044287;28;20291;-63
2022/08/19 04:27:55;;;;;;;13.50;5.83;;;;;;;16.94;97.49;100592.31;6040405;28;20457;-64
2022/08/19 04:30:53;;;;;;;15.80;5.70;;;;;;;16.89;97.72;100584.03;6030268;28;20038;-64
2022/08/19 04:33:48;;;;;;;13.00;5.90;;;;;;;16.94;98.13;100586.97;6040839;28;20362;-63
2022/08/19 04:36:44;;;;;;;11.10;5.83;;;;;;;17.00;97.84;100597.75;6039519;28;20040;-63
2022/08/19 04:42:58;;;;;;;14.77;6.63;;;;;;;16.94;98.11;100587.78;6050320;28;20068;-63
2022/08/19 04:45:54;;;;;;;11.13;5.70;;;;;;;16.98;97.95;100585.56;6034407;28;20030;-62
2022/08/19 04:48:49;;;;;;;13.32;7.28;;;;;;;17.10;97.50;100597.44;6042010;28;20054;-64
2022/08/19 04:51:47;;;;;;;12.15;6.38;;;;;;;17.17;97.38;100617.09;6040463;28;20038;-64
2022/08/19 04:54:42;;;;;;;13.00;6.40;;;;;;;17.14;97.21;100594.19;6041221;28;20041;-64
2022/08/19 04:57:40;;;;;;;13.40;6.40;;;;;;;17.27;97.67;100594.31;6043497;28;20082;-65
2022/08/19 05:00:38;;;;;;;11.48;6.50;;;;;;;17.30;96.50;100587.72;6044471;28;20069;-64
2022/08/19 05:03:33;;;;;;;13.00;6.60;;;;;;;17.28;96.37;100590.59;6044627;28;20073;-64
2022/08/19 05:06:28;;;;;;;12.70;6.17;;;;;;;17.34;96.26;100602.41;6044850;28;20556;-65
2022/08/19 05:09:24;;;;;;;13.90;6.43;;;;;;;17.32;96.08;100598.25;6044313;28;20049;-64
2022/08/19 05:12:19;;;;;;;15.03;6.90;;;;;;;17.35;95.80;100596.03;6044020;28;20038;-64
2022/08/19 05:15:15;;;;;;;13.60;6.45;;;;;;;17.40;96.20;100592.75;6047011;28;20694;-64
2022/08/19 05:24:39;;;;;;;12.98;5.88;;;;;;;17.36;95.74;100586.97;6046344;28;20030;-64
2022/08/19 05:27:34;;;;;;;13.02;6.15;;;;;;;17.32;95.88;100574.97;6046132;28;20469;-64
2022/08/19 05:30:29;;;;;;;10.80;6.30;;;;;;;17.34;95.42;100594.34;6037053;28;20030;-64
2022/08/19 05:33:25;;;;;;;14.53;6.07;;;;;;;17.39;95.18;100589.28;6040636;28;20042;-64
2022/08/19 05:36:20;;;;;;;11.63;5.97;;;;;;;17.45;94.46;100590.34;6028243;28;20311;-65
2022/08/19 05:39:19;;;;;;;10.70;5.00;;;;;;;17.53;94.35;100608.97;6041484;28;20033;-64
2022/08/19 05:42:14;;;;;;;11.07;5.45;;;;;;;17.57;94.19;100603.06;6042310;28;20378;-64
2022/08/19 05:45:10;;;;;;;11.00;5.57;;;;;;;17.54;93.71;100587.34;6040241;28;20041;-64
2022/08/19 05:48:05;;;;;;;9.80;5.45;;;;;;;17.57;93.62;100589.66;6040521;28;20033;-65
2022/08/19 05:51:08;;;;;;;12.17;5.73;;;;;;;17.70;92.88;100607.69;6033516;28;20044;-64
2022/08/19 05:54:05;;;;;;;10.88;5.68;;;;;;;17.70;92.58;100605.84;6044793;28;20033;-65
2022/08/19 05:57:00;;;;;;;11.98;5.18;;;;;;;17.72;92.33;100601.09;6035749;28;20041;-64
2022/08/19 05:59:57;;;;;;;10.80;4.85;;;;;;;17.70;91.73;100579.03;6034656;28;20034;-64
2022/08/19 06:02:55;;;;;;;10.00;4.25;;;;;;;17.87;90.65;100594.81;6039940;28;20038;-64
2022/08/19 06:05:50;;;;;;;10.50;4.57;;;;;;;18.02;89.93;100619.69;6043999;28;20121;-64
2022/08/19 06:08:49;;;;;;;8.00;4.80;;;;;;;17.99;89.84;100614.72;6043204;28;20045;-64
2022/08/19 06:11:48;;;;;;;10.75;4.53;;;;;;;18.03;89.63;100610.59;6041148;28;20492;-64
2022/08/19 06:14:44;;;;;;;9.02;4.28;;;;;;;18.13;88.90;100622.66;6038578;28;20034;-64
2022/08/19 06:17:41;;;;;;;6.67;4.17;;;;;;;18.14;88.46;100613.56;6029566;28;20069;-64
2022/08/19 06:20:36;;;;;;;7.57;3.80;;;;;;;18.10;88.01;100600.75;6037615;28;20121;-65
2022/08/19 06:23:33;;;;;;;7.97;4.00;;;;;;;18.18;88.02;100614.03;6037494;28;20041;-64
2022/08/19 06:26:29;;;;;;;8.98;4.10;;;;;;;18.14;87.55;100602.00;6050422;28;20065;-64
2022/08/19 06:29:26;;;;;;;6.63;3.60;;;;;;;18.20;87.00;100606.59;6046235;28;20041;-64
2022/08/19 06:32:21;;;;;;;9.20;3.88;;;;;;;18.34;87.10;100616.38;6036761;28;20129;-64
2022/08/19 06:35:16;;;;;;;7.47;3.53;;;;;;;18.33;86.37;100628.97;6041273;28;20026;-64
2022/08/19 06:38:12;;;;;;;6.47;3.57;;;;;;;18.30;85.86;100617.78;6035277;28;20462;-64
2022/08/19 06:41:08;;;;;;;6.85;3.40;;;;;;;18.34;85.54;100624.44;6037402;28;20132;-64
2022/08/19 06:44:05;;;;;;;6.57;3.15;;;;;;;18.36;86.38;100638.47;6036359;28;20026;-63
2022/08/19 06:47:04;;;;;;;6.03;3.42;;;;;;;18.30;85.69;100633.91;6039490;28;20033;-64
2022/08/19 06:50:02;;;;;;;5.60;3.28;;;;;;;18.33;85.51;100636.19;6036187;28;20470;-64
2022/08/19 06:52:57;;;;;;;6.75;3.13;;;;;;;18.38;85.50;100641.78;6033019;28;20034;-65
2022/08/19 06:56:00;;;;;;;7.17;3.30;;;;;;;18.45;85.27;100640.00;6039109;28;20129;-64
2022/08/19 06:58:55;;;;;;;5.80;3.10;;;;;;;18.57;84.81;100627.66;6038131;28;20026;-64
2022/08/19 07:01:52;;;;;;;7.03;3.30;;;;;;;18.56;83.97;100646.69;6038360;28;20038;-64
2022/08/19 07:04:47;;;;;;;5.88;3.40;;;;;;;18.58;83.84;100650.00;6036131;28;20066;-64
2022/08/19 07:07:43;;;;;;;5.00;3.00;;;;;;;18.60;83.82;100650.63;6032279;28;20040;-64
2022/08/19 07:10:43;;;;;;;5.28;2.95;;;;;;;18.53;83.28;100655.13;6042492;28;20547;-64
2022/08/19 07:13:39;;;;;;;5.70;3.15;;;;;;;18.61;83.46;100669.22;6030203;28;20038;-64
2022/08/19 07:16:34;;;;;;;4.00;2.83;;;;;;;18.61;82.76;100669.22;6033715;28;20640;-64
2022/08/19 07:19:31;;;;;;;6.87;3.00;;;;;;;18.70;82.79;100678.75;6038225;28;20034;-64
2022/08/19 07:22:26;;;;;;;6.55;2.70;;;;;;;18.79;82.25;100676.75;6025959;28;20041;-65
2022/08/19 07:25:21;;;;;;;8.20;2.90;;;;;;;18.84;82.27;100679.66;6037010;28;20037;-64
2022/08/19 07:28:18;;;;;;;6.30;2.58;;;;;;;19.01;81.60;100687.19;6031805;28;20044;-65
2022/08/19 07:31:17;;;;;;;4.30;2.33;;;;;;;18.99;81.72;100693.78;6036849;28;20100;-65
2022/08/19 07:34:14;;;;;;;6.88;2.50;;;;;;;18.90;81.38;100692.28;6037504;28;20034;-64
2022/08/19 07:37:10;;;;;;;7.15;2.63;;;;;;;18.90;81.29;100701.19;6039306;28;20049;-64
2022/08/19 07:40:07;;;;;;;5.53;3.40;;;;;;;18.99;81.31;100700.00;6033695;28;20030;-64
2022/08/19 07:43:02;;;;;;;4.95;2.55;;;;;;;18.89;80.74;100704.06;6038232;28;20129;-64
2022/08/19 07:45:58;;;;;;;12.00;2.93;;;;;;;19.15;80.38;100720.31;6038731;28;20030;-64
2022/08/19 07:48:53;;;;;;;9.55;2.63;;;;;;;19.16;80.29;100731.91;6039681;28;20041;-63
2022/08/19 07:51:54;;;;;;;8.32;2.90;;;;;;;18.97;80.31;100723.53;6039953;28;20156;-64
2022/08/19 07:54:50;;;;;;;7.50;3.22;;;;;;;19.11;80.42;100737.88;6039054;28;20065;-64
2022/08/19 07:57:45;;;;;;;5.53;3.10;;;;;;;18.96;80.39;100732.66;6032762;28;20052;-64
2022/08/19 08:00:41;;;;;;;6.10;3.03;;;;;;;18.93;80.99;100724.97;6033733;28;20042;-64
2022/08/19 08:10:07;;;;;;;9.15;3.40;;;;;;;19.29;79.16;100731.94;6038115;28;20194;-64
2022/08/19 08:13:04;;;;;;;8.23;3.42;;;;;;;19.30;78.08;100725.50;6037719;28;20065;-64
2022/08/19 08:16:00;;;;;;;6.95;3.40;;;;;;;19.36;77.63;100722.03;6038400;28;20030;-64
2022/08/19 08:18:55;;;;;;;5.95;3.13;;;;;;;19.76;77.12;100723.78;6033770;28;20044;-64
2022/08/19 08:21:52;;;;;;;8.40;4.33;;;;;;;19.47;76.71;100721.47;6044867;28;20038;-64
2022/08/19 08:24:47;;;;;;;6.03;3.63;;;;;;;19.69;76.75;100722.13;6040002;28;20030;-64
2022/08/19 08:27:44;;;;;;;7.63;3.80;;;;;;;19.82;76.05;100727.53;6038962;28;20092;-64
2022/08/19 08:30:41;;;;;;;7.07;3.97;;;;;;;19.88;75.15;100716.78;6039960;28;20338;-65
2022/08/19 08:33:37;;;;;;;6.05;3.85;;;;;;;20.00;74.64;100715.09;6034262;28;20162;-64
2022/08/19 08:36:33;;;;;;;8.93;3.63;;;;;;;20.17;73.91;100710.97;6035036;28;20038;-64
2022/08/19 08:39:30;;;;;;;6.60;3.42;;;;;;;20.24;73.87;100727.16;6045776;28;20026;-64
2022/08/19 08:42:33;;;;;;;5.95;3.55;;;;;;;20.41;72.67;100730.25;6047599;28;20034;-65
2022/08/19 08:45:30;;;;;;;7.72;3.88;;;;;;;20.60;72.26;100732.09;6060680;28;20065;-65
2022/08/19 08:48:39;;;;;;;7.57;3.75;;;;;;;20.56;71.64;100720.06;6063642;28;20042;-64
2022/08/19 08:52:03;;;;;;;10.48;3.88;;;;;;;20.37;72.20;100712.84;6037412;28;20498;-63
2022/08/19 08:55:00;;;;;;;6.18;3.33;;;;;;;20.35;72.27;100734.63;6040563;28;20049;-65
2022/08/19 08:58:03;;;;;;;6.03;4.05;;;;;;;20.52;72.51;100726.91;6040152;28;20073;-64
2022/08/19 09:00:58;;;;;;;6.15;4.15;;;;;;;20.50;71.96;100732.50;6042730;28;20516;-64
2022/08/19 09:03:54;;;;;;;7.13;3.17;;;;;;;20.38;72.24;100722.59;6038110;28;20034;-65
2022/08/19 09:07:26;;;;;;;5.03;3.20;;;;;;;20.46;72.39;100731.28;6041830;28;20096;-64
2022/08/19 09:10:28;;;;;;;9.57;4.38;;;;;;;20.42;72.00;100734.59;6031075;28;21071;-64
2022/08/19 09:13:51;;;;;;;5.47;3.03;;;;;;;20.61;71.90;100733.72;6040109;28;20045;-64
2022/08/19 09:16:49;;;;;;;5.35;3.08;;;;;;;20.57;72.20;100721.72;6038074;28;20041;-64
2022/08/19 09:19:55;;;;;;;4.80;2.80;;;;;;;20.45;71.61;100720.69;6046026;28;20076;-65
2022/08/19 09:22:50;;;;;;;7.82;3.33;;;;;;;20.28;72.82;100728.38;6039105;28;20065;-64
2022/08/19 09:25:46;;;;;;;5.55;3.30;;;;;;;20.25;71.98;100712.63;6041790;28;20034;-65
2022/08/19 09:28:43;;;;;;;6.88;3.22;;;;;;;20.50;72.24;100727.13;6044991;28;20038;-64
2022/08/19 09:31:38;;;;;;;5.43;3.67;;;;;;;20.60;71.34;100729.41;6026030;28;20038;-65
2022/08/19 09:34:33;;;;;;;7.87;3.20;;;;;;;20.61;71.37;100722.94;6045679;28;20041;-64
2022/08/19 09:37:29;;;;;;;6.23;2.77;;;;;;;20.54;71.72;100733.75;6047125;28;20472;-64
2022/08/19 09:40:25;;;;;;;7.87;3.40;;;;;;;20.29;72.01;100734.59;6034437;28;20049;-64
2022/08/19 09:43:21;;;;;;;5.55;3.30;;;;;;;20.57;72.43;100743.28;6047900;28;20026;-64
2022/08/19 09:46:17;;;;;;;5.63;3.30;;;;;;;20.42;71.03;100737.28;6047549;28;20041;-64
2022/08/19 09:49:13;;;;;;;4.93;2.90;;;;;;;20.61;71.59;100739.13;6046042;28;20652;-64
2022/08/19 09:52:10;;;;;;;9.73;3.60;;;;;;;21.02;70.32;100742.31;6039947;28;20022;-64
2022/08/19 09:55:07;;;;;;;5.28;3.13;;;;;;;21.26;69.17;100740.78;6043731;28;20143;-65
2022/08/19 09:58:03;;;;;;;8.82;4.35;;;;;;;21.21;68.95;100752.22;6042242;28;20030;-64
2022/08/19 10:01:00;;;;;;;6.60;3.65;;;;;;;21.56;67.94;100738.34;6037557;28;20072;-65
2022/08/19 10:03:57;;;;;;;6.47;3.90;;;;;;;21.82;66.79;100746.28;6033878;28;20458;-65
2022/08/19 10:06:55;;;;;;;8.25;3.95;;;;;;;21.90;66.43;100735.25;6041157;28;20061;-64
2022/08/19 10:09:51;;;;;;;7.38;3.80;;;;;;;22.00;67.39;100737.44;6034432;28;20054;-65
2022/08/19 10:12:47;;;;;;;5.30;3.07;;;;;;;22.58;64.46;100744.22;6028055;28;20069;-64
2022/08/19 10:15:43;;;;;;;6.53;3.53;;;;;;;22.80;63.74;100739.22;6039477;28;20022;-64
2022/08/19 10:18:39;;;;;;;7.05;4.47;;;;;;;22.45;64.62;100738.91;6044117;28;20087;-64
2022/08/19 10:21:35;;;;;;;7.10;3.63;;;;;;;22.40;64.21;100728.78;6034591;28;20041;-64
2022/08/19 10:24:31;;;;;;;6.07;3.90;;;;;;;22.58;64.29;100727.16;6041297;28;20149;-64
2022/08/19 10:27:27;;;;;;;9.20;4.28;;;;;;;23.48;62.27;100719.00;6043500;28;20037;-66
2022/08/19 10:30:22;;;;;;;6.50;3.83;;;;;;;23.30;61.55;100712.78;6047231;28;20041;-65
2022/08/19 10:33:17;;;;;;;5.30;3.40;;;;;;;23.43;61.17;100710.75;6037264;28;20030;-64
2022/08/19 10:36:17;;;;;;;7.33;3.73;;;;;;;23.80;61.24;100708.75;6034206;28;20920;-65
2022/08/19 10:39:12;;;;;;;5.30;3.65;;;;;;;24.27;59.13;100699.63;6038970;28;20675;-64
2022/08/19 10:42:10;;;;;;;6.15;3.35;;;;;;;24.11;59.41;100691.34;6046116;28;20044;-64
2022/08/19 10:45:05;;;;;;;8.00;3.88;;;;;;;24.11;59.01;100692.19;6043393;28;20040;-65
2022/08/19 10:48:01;;;;;;;5.75;3.42;;;;;;;24.00;60.71;100703.81;6058199;28;20112;-65
2022/08/19 10:54:11;;;;;;;5.53;3.40;;;;;;;23.75;60.33;100696.94;6039928;28;20026;-64
2022/08/19 10:57:06;;;;;;;5.38;3.40;;;;;;;24.08;59.76;100694.53;6046028;28;20033;-65
2022/08/19 11:00:03;;;;;;;5.03;3.20;;;;;;;23.75;60.17;100686.13;6042916;28;20033;-64
2022/08/19 11:02:59;;;;;;;4.57;3.13;;;;;;;23.84;60.08;100687.41;6042693;28;20934;-64
2022/08/19 11:06:03;;;;;;;5.15;3.28;;;;;;;24.30;58.44;100679.34;6043373;28;20029;-64
2022/08/19 11:08:59;;;;;;;4.43;2.78;;;;;;;23.89;60.27;100674.81;6040240;28;20469;-65
2022/08/19 11:11:56;;;;;;;6.35;3.10;;;;;;;24.50;58.89;100668.97;6041281;28;20076;-65
2022/08/19 11:14:52;;;;;;;5.07;2.85;;;;;;;25.03;56.20;100663.28;6040723;28;20115;-65
2022/08/19 11:17:47;;;;;;;6.60;3.50;;;;;;;25.02;55.38;100660.81;6029190;28;20405;-65
2022/08/19 11:20:42;;;;;;;6.07;3.27;;;;;;;25.12;56.21;100655.59;6037295;28;20034;-65
2022/08/19 11:23:38;;;;;;;7.03;3.87;;;;;;;24.71;56.59;100641.19;6034288;28;20034;-65
2022/08/19 11:26:34;;;;;;;6.70;3.13;;;;;;;24.97;57.56;100660.75;6035569;28;20045;-65
2022/08/19 11:29:30;;;;;;;6.05;3.83;;;;;;;24.54;56.58;100653.84;6036530;28;20040;-64
2022/08/19 11:32:26;;;;;;;5.30;3.40;;;;;;;24.68;57.15;100647.09;6034453;28;20042;-64
2022/08/19 11:35:23;;;;;;;6.25;3.20;;;;;;;25.15;56.08;100649.69;6026138;28;20073;-66
2022/08/19 11:38:18;;;;;;;7.22;3.30;;;;;;;25.54;55.42;100659.66;6035496;28;20394;-65
2022/08/19 11:41:15;;;;;;;4.07;2.90;;;;;;;25.94;54.05;100656.78;6041366;28;20046;-65
2022/08/19 11:44:10;;;;;;;6.03;3.83;;;;;;;24.99;54.79;100642.31;6041012;28;20037;-64
2022/08/19 11:47:06;;;;;;;5.85;3.15;;;;;;;25.59;54.69;100651.59;6043401;28;20333;-66
2022/08/19 11:50:02;;;;;;;6.28;3.60;;;;;;;25.60;53.75;100647.00;6042762;28;20029;-66
2022/08/19 11:52:57;;;;;;;7.13;3.38;;;;;;;25.40;52.99;100615.69;6044021;28;20037;-65
2022/08/19 11:55:56;;;;;;;5.73;3.43;;;;;;;25.39;54.20;100634.91;6040485;28;20411;-65
2022/08/19 11:58:52;;;;;;;5.30;3.80;;;;;;;25.53;53.73;100641.72;6045253;28;20030;-65
2022/08/19 12:01:47;;;;;;;6.43;3.55;;;;;;;25.82;52.74;100651.44;6042070;28;20030;-65
2022/08/19 12:04:43;;;;;;;5.40;3.40;;;;;;;26.08;52.71;100641.78;6046146;28;20480;-65
2022/08/19 12:07:39;;;;;;;4.87;3.37;;;;;;;26.20;50.45;100633.56;6033564;28;20034;-65
2022/08/19 12:10:35;;;;;;;4.28;2.90;;;;;;;26.28;51.11;100633.94;6032455;28;20034;-64
2022/08/19 12:13:30;;;;;;;6.13;3.92;;;;;;;26.17;50.80;100644.94;6040370;28;20037;-65
2022/08/19 12:16:27;;;;;;;4.70;3.25;;;;;;;26.21;50.85;100643.34;6040454;28;20038;-65
2022/08/19 12:19:24;;;;;;;5.38;3.35;;;;;;;26.60;50.74;100643.09;6042693;28;20096;-65
2022/08/19 12:22:20;;;;;;;5.28;3.30;;;;;;;26.88;49.33;100617.59;6039414;28;20030;-64
2022/08/19 12:25:16;;;;;;;5.25;3.05;;;;;;;26.97;48.94;100631.56;6038429;28;20466;-65
2022/08/19 12:28:12;;;;;;;4.60;3.20;;;;;;;27.15;48.73;100623.88;6039902;28;20611;-65
2022/08/19 12:31:08;;;;;;;6.00;3.15;;;;;;;27.71;47.74;100619.78;6033589;28;20077;-65
2022/08/19 12:34:04;;;;;;;5.60;3.30;;;;;;;27.64;46.78;100621.91;6038811;28;20428;-65
2022/08/19 12:37:01;;;;;;;5.40;2.90;;;;;;;27.57;47.40;100617.75;6040271;28;20093;-64
2022/08/19 12:39:57;;;;;;;5.38;3.22;;;;;;;27.00;48.33;100626.44;6031758;28;20037;-64
2022/08/19 12:42:53;;;;;;;4.13;2.85;;;;;;;26.81;49.43;100622.41;6044665;28;20037;-65
2022/08/19 12:45:48;;;;;;;6.00;2.85;;;;;;;27.30;48.70;100633.28;6041366;28;20072;-65
2022/08/19 12:48:45;;;;;;;5.07;3.17;;;;;;;26.90;48.53;100628.22;6042853;28;20037;-64
2022/08/19 12:51:41;;;;;;;4.95;3.45;;;;;;;26.70;49.53;100631.50;6038048;28;20108;-65
2022/08/19 12:54:37;;;;;;;4.10;3.00;;;;;;;26.58;50.05;100628.06;6039988;28;20507;-65
2022/08/19 12:57:35;;;;;;;6.05;2.90;;;;;;;26.75;49.76;100617.94;6040020;28;20076;-64
2022/08/19 13:00:32;;;;;;;4.63;2.90;;;;;;;26.97;49.11;100610.63;6029925;28;20029;-64
2022/08/19 13:03:29;;;;;;;4.78;3.08;;;;;;;27.18;48.67;100617.06;6040168;28;20048;-65
2022/08/19 13:06:25;;;;;;;4.03;2.65;;;;;;;27.60;47.46;100614.50;6033843;28;20033;-66
2022/08/19 13:09:20;;;;;;;4.35;2.90;;;;;;;27.56;46.46;100616.09;6040558;28;20034;-64
2022/08/19 13:12:15;;;;;;;4.13;2.47;;;;;;;27.62;46.52;100609.59;6048054;28;20038;-65
2022/08/19 13:15:11;;;;;;;4.17;2.77;;;;;;;26.93;47.72;100603.22;6044559;28;20072;-66
2022/08/19 13:18:08;;;;;;;4.47;2.70;;;;;;;27.07;47.94;100605.25;6033788;28;20030;-65
2022/08/19 13:21:05;;;;;;;4.45;2.50;;;;;;;27.24;47.13;100601.59;6046860;28;20030;-65
2022/08/19 13:24:01;;;;;;;4.70;2.95;;;;;;;27.69;47.08;100594.66;6044810;28;20124;-64
2022/08/19 13:26:56;;;;;;;5.07;2.70;;;;;;;27.38;47.84;100590.03;6048061;28;20545;-65
2022/08/19 13:33:13;;;;;;;4.78;2.60;;;;;;;27.97;46.17;100588.06;6046042;28;20042;-65
2022/08/19 13:36:09;;;;;;;5.60;2.80;;;;;;;27.96;45.81;100591.06;6061921;28;20018;-67
2022/08/19 13:39:07;;;;;;;4.53;2.50;;;;;;;28.00;45.92;100592.16;6032679;28;20037;-67
2022/08/19 13:42:04;;;;;;;3.80;3.00;;;;;;;27.58;46.59;100595.69;6038535;28;20377;-66
2022/08/19 13:44:59;;;;;;;3.90;2.60;;;;;;;26.99;48.18;100602.19;6037665;28;20026;-65
2022/08/19 13:47:56;;;;;;;4.07;2.50;;;;;;;26.69;49.05;100596.41;6043843;28;20034;-66
2022/08/19 13:50:51;;;;;;;4.43;2.60;;;;;;;27.13;48.68;100600.69;6043431;28;20050;-66
2022/08/19 13:53:47;;;;;;;6.20;2.70;;;;;;;27.16;48.13;100600.19;6045431;28;20092;-66
2022/08/19 13:56:44;;;;;;;3.97;2.47;;;;;;;27.35;47.43;100597.91;6046790;28;20103;-64
2022/08/19 13:59:39;;;;;;;7.50;2.95;;;;;;;27.94;47.00;100602.22;6045788;28;20041;-65
2022/08/19 14:02:37;;;;;;;4.57;2.80;;;;;;;28.06;46.48;100594.69;6047809;28;20343;-65